sensor_id;sensor_type;location;lat;lon;timestamp;temperature;humidity
58153;DHT22;43967;51.634;5.566;2023-11-21T00:01:47;17.80;67.90
58153;DHT22;43967;51.634;5.566;2023-11-21T00:07:08;17.80;67.80
58153;DHT22;43967;51.634;5.566;2023-11-21T00:12:29;17.80;67.70
58153;DHT22;43967;51.634;5.566;2023-11-21T00:17:51;17.80;67.70
58153;DHT22;43967;51.634;5.566;2023-11-21T00:23:12;17.80;67.60
58153;DHT22;43967;51.634;5.566;2023-11-21T00:28:33;17.80;67.60
58153;DHT22;43967;51.634;5.566;2023-11-21T00:33:54;17.80;67.50
58153;DHT22;43967;51.634;5.566;2023-11-21T00:39:16;17.80;68.10
58153;DHT22;43967;51.634;5.566;2023-11-21T00:44:40;17.80;67.40
58153;DHT22;43967;51.634;5.566;2023-11-21T00:50:01;17.70;67.30
58153;DHT22;43967;51.634;5.566;2023-11-21T00:55:23;17.70;67.20
58153;DHT22;43967;51.634;5.566;2023-11-21T01:00:44;17.80;67.20
58153;DHT22;43967;51.634;5.566;2023-11-21T01:06:06;17.70;67.10
58153;DHT22;43967;51.634;5.566;2023-11-21T01:11:30;17.70;67.10
58153;DHT22;43967;51.634;5.566;2023-11-21T01:16:53;17.70;67.00
58153;DHT22;43967;51.634;5.566;2023-11-21T01:22:15;17.70;67.00
58153;DHT22;43967;51.634;5.566;2023-11-21T01:27:37;17.70;66.90
58153;DHT22;43967;51.634;5.566;2023-11-21T01:32:58;17.70;66.80
58153;DHT22;43967;51.634;5.566;2023-11-21T01:38:19;17.70;66.80
58153;DHT22;43967;51.634;5.566;2023-11-21T01:43:41;17.70;66.70
58153;DHT22;43967;51.634;5.566;2023-11-21T01:49:02;17.70;66.60
58153;DHT22;43967;51.634;5.566;2023-11-21T01:54:24;17.60;66.50
58153;DHT22;43967;51.634;5.566;2023-11-21T01:59:45;17.60;66.50
58153;DHT22;43967;51.634;5.566;2023-11-21T02:05:11;17.60;67.10
58153;DHT22;43967;51.634;5.566;2023-11-21T02:10:35;17.70;66.40
58153;DHT22;43967;51.634;5.566;2023-11-21T02:15:56;17.60;66.30
58153;DHT22;43967;51.634;5.566;2023-11-21T02:21:17;17.60;66.30
58153;DHT22;43967;51.634;5.566;2023-11-21T02:26:39;17.60;66.30
58153;DHT22;43967;51.634;5.566;2023-11-21T02:32:00;17.60;66.20
58153;DHT22;43967;51.634;5.566;2023-11-21T02:37:21;17.60;66.20
58153;DHT22;43967;51.634;5.566;2023-11-21T02:48:04;17.60;65.80
58153;DHT22;43967;51.634;5.566;2023-11-21T02:53:26;17.60;66.10
58153;DHT22;43967;51.634;5.566;2023-11-21T02:58:47;17.50;65.90
58153;DHT22;43967;51.634;5.566;2023-11-21T03:04:08;17.60;66.00
58153;DHT22;43967;51.634;5.566;2023-11-21T03:09:29;17.50;66.00
58153;DHT22;43967;51.634;5.566;2023-11-21T03:14:51;17.50;66.10
58153;DHT22;43967;51.634;5.566;2023-11-21T03:20:12;17.50;66.10
58153;DHT22;43967;51.634;5.566;2023-11-21T03:25:33;17.60;66.30
58153;DHT22;43967;51.634;5.566;2023-11-21T03:30:54;17.60;66.50
58153;DHT22;43967;51.634;5.566;2023-11-21T03:36:16;17.60;66.60
58153;DHT22;43967;51.634;5.566;2023-11-21T03:41:37;17.70;66.80
58153;DHT22;43967;51.634;5.566;2023-11-21T03:46:58;17.70;66.80
58153;DHT22;43967;51.634;5.566;2023-11-21T03:52:20;17.70;66.90
58153;DHT22;43967;51.634;5.566;2023-11-21T03:57:41;17.70;66.90
58153;DHT22;43967;51.634;5.566;2023-11-21T04:03:02;17.80;66.80
58153;DHT22;43967;51.634;5.566;2023-11-21T04:08:25;17.70;66.70
58153;DHT22;43967;51.634;5.566;2023-11-21T04:13:46;17.70;66.60
58153;DHT22;43967;51.634;5.566;2023-11-21T04:19:08;17.70;66.60
58153;DHT22;43967;51.634;5.566;2023-11-21T04:24:29;17.70;66.50
58153;DHT22;43967;51.634;5.566;2023-11-21T04:29:50;17.70;66.40
58153;DHT22;43967;51.634;5.566;2023-11-21T04:35:12;17.70;66.30
58153;DHT22;43967;51.634;5.566;2023-11-21T04:40:33;17.70;66.20
58153;DHT22;43967;51.634;5.566;2023-11-21T04:45:55;17.70;66.20
58153;DHT22;43967;51.634;5.566;2023-11-21T04:51:16;17.70;66.00
58153;DHT22;43967;51.634;5.566;2023-11-21T04:56:37;17.70;66.00
58153;DHT22;43967;51.634;5.566;2023-11-21T05:01:59;17.70;66.00
58153;DHT22;43967;51.634;5.566;2023-11-21T05:07:20;17.70;65.90
58153;DHT22;43967;51.634;5.566;2023-11-21T05:12:42;17.70;65.90
58153;DHT22;43967;51.634;5.566;2023-11-21T05:18:03;17.70;65.90
58153;DHT22;43967;51.634;5.566;2023-11-21T05:23:24;17.60;65.70
58153;DHT22;43967;51.634;5.566;2023-11-21T05:28:45;17.70;65.90
58153;DHT22;43967;51.634;5.566;2023-11-21T05:34:07;17.60;65.70
58153;DHT22;43967;51.634;5.566;2023-11-21T05:39:28;17.60;65.70
58153;DHT22;43967;51.634;5.566;2023-11-21T05:44:49;17.60;65.70
58153;DHT22;43967;51.634;5.566;2023-11-21T05:50:15;17.60;65.60
58153;DHT22;43967;51.634;5.566;2023-11-21T05:55:37;17.60;65.50
58153;DHT22;43967;51.634;5.566;2023-11-21T06:00:58;17.50;65.70
58153;DHT22;43967;51.634;5.566;2023-11-21T06:06:19;17.40;65.60
58153;DHT22;43967;51.634;5.566;2023-11-21T06:11:41;17.40;65.60
58153;DHT22;43967;51.634;5.566;2023-11-21T06:17:02;17.40;65.50
58153;DHT22;43967;51.634;5.566;2023-11-21T06:22:23;17.40;65.50
58153;DHT22;43967;51.634;5.566;2023-11-21T06:27:46;17.40;65.60
58153;DHT22;43967;51.634;5.566;2023-11-21T06:33:08;17.50;65.60
58153;DHT22;43967;51.634;5.566;2023-11-21T06:38:31;17.50;65.60
58153;DHT22;43967;51.634;5.566;2023-11-21T06:43:52;17.60;65.80
58153;DHT22;43967;51.634;5.566;2023-11-21T06:49:13;17.60;65.90
58153;DHT22;43967;51.634;5.566;2023-11-21T06:54:36;17.60;65.90
58153;DHT22;43967;51.634;5.566;2023-11-21T06:59:57;17.60;65.90
58153;DHT22;43967;51.634;5.566;2023-11-21T07:05:19;17.60;65.90
58153;DHT22;43967;51.634;5.566;2023-11-21T07:10:41;17.60;65.90
58153;DHT22;43967;51.634;5.566;2023-11-21T07:16:03;17.60;65.80
58153;DHT22;43967;51.634;5.566;2023-11-21T07:21:24;17.60;65.70
58153;DHT22;43967;51.634;5.566;2023-11-21T07:26:45;17.60;65.80
58153;DHT22;43967;51.634;5.566;2023-11-21T07:32:06;17.60;65.70
58153;DHT22;43967;51.634;5.566;2023-11-21T07:37:28;17.60;65.60
58153;DHT22;43967;51.634;5.566;2023-11-21T07:42:51;17.60;65.30
58153;DHT22;43967;51.634;5.566;2023-11-21T07:48:12;17.60;65.10
58153;DHT22;43967;51.634;5.566;2023-11-21T07:53:33;17.60;65.20
58153;DHT22;43967;51.634;5.566;2023-11-21T07:58:58;17.60;65.20
58153;DHT22;43967;51.634;5.566;2023-11-21T08:04:19;17.70;65.30
58153;DHT22;43967;51.634;5.566;2023-11-21T08:09:40;17.60;65.20
58153;DHT22;43967;51.634;5.566;2023-11-21T08:15:03;17.60;65.20
58153;DHT22;43967;51.634;5.566;2023-11-21T08:20:25;17.60;65.10
58153;DHT22;43967;51.634;5.566;2023-11-21T08:25:46;17.60;65.10
58153;DHT22;43967;51.634;5.566;2023-11-21T08:31:08;17.60;65.10
58153;DHT22;43967;51.634;5.566;2023-11-21T08:36:29;17.60;65.10
58153;DHT22;43967;51.634;5.566;2023-11-21T08:41:51;17.60;65.10
58153;DHT22;43967;51.634;5.566;2023-11-21T08:47:12;17.60;65.10
58153;DHT22;43967;51.634;5.566;2023-11-21T08:52:34;17.60;65.10
58153;DHT22;43967;51.634;5.566;2023-11-21T08:57:55;17.50;65.10
58153;DHT22;43967;51.634;5.566;2023-11-21T09:03:16;17.60;65.20
58153;DHT22;43967;51.634;5.566;2023-11-21T09:08:37;17.50;65.10
58153;DHT22;43967;51.634;5.566;2023-11-21T09:14:01;17.60;65.10
58153;DHT22;43967;51.634;5.566;2023-11-21T09:19:23;17.60;65.10
58153;DHT22;43967;51.634;5.566;2023-11-21T09:24:44;17.50;65.10
58153;DHT22;43967;51.634;5.566;2023-11-21T09:30:06;17.50;65.00
58153;DHT22;43967;51.634;5.566;2023-11-21T09:35:28;17.60;65.10
58153;DHT22;43967;51.634;5.566;2023-11-21T09:40:49;17.60;65.10
58153;DHT22;43967;51.634;5.566;2023-11-21T09:46:11;17.60;65.10
58153;DHT22;43967;51.634;5.566;2023-11-21T09:51:34;17.60;65.10
58153;DHT22;43967;51.634;5.566;2023-11-21T09:56:55;17.50;65.10
58153;DHT22;43967;51.634;5.566;2023-11-21T10:02:17;17.50;65.10
58153;DHT22;43967;51.634;5.566;2023-11-21T10:07:39;17.60;65.20
58153;DHT22;43967;51.634;5.566;2023-11-21T10:13:03;17.50;65.10
58153;DHT22;43967;51.634;5.566;2023-11-21T10:18:25;17.60;65.20
58153;DHT22;43967;51.634;5.566;2023-11-21T10:23:47;17.60;65.30
58153;DHT22;43967;51.634;5.566;2023-11-21T10:29:08;17.50;65.20
58153;DHT22;43967;51.634;5.566;2023-11-21T10:34:29;17.50;65.20
58153;DHT22;43967;51.634;5.566;2023-11-21T10:39:50;17.60;65.30
58153;DHT22;43967;51.634;5.566;2023-11-21T10:45:12;17.60;65.40
58153;DHT22;43967;51.634;5.566;2023-11-21T10:50:34;17.50;65.30
58153;DHT22;43967;51.634;5.566;2023-11-21T10:56:02;17.50;65.30
58153;DHT22;43967;51.634;5.566;2023-11-21T11:01:28;17.60;65.40
58153;DHT22;43967;51.634;5.566;2023-11-21T11:07:02;17.50;65.40
58153;DHT22;43967;51.634;5.566;2023-11-21T11:12:24;17.50;65.40
58153;DHT22;43967;51.634;5.566;2023-11-21T11:17:46;17.60;65.50
58153;DHT22;43967;51.634;5.566;2023-11-21T11:29:08;17.60;65.70
58153;DHT22;43967;51.634;5.566;2023-11-21T11:34:44;17.60;65.70
58153;DHT22;43967;51.634;5.566;2023-11-21T11:40:07;17.60;65.80
58153;DHT22;43967;51.634;5.566;2023-11-21T11:45:33;17.50;65.80
58153;DHT22;43967;51.634;5.566;2023-11-21T11:51:10;17.60;65.80
58153;DHT22;43967;51.634;5.566;2023-11-21T11:56:32;17.60;65.90
58153;DHT22;43967;51.634;5.566;2023-11-21T12:01:56;17.60;65.90
58153;DHT22;43967;51.634;5.566;2023-11-21T12:07:18;17.50;65.90
58153;DHT22;43967;51.634;5.566;2023-11-21T12:12:42;17.60;65.90
58153;DHT22;43967;51.634;5.566;2023-11-21T12:18:04;17.60;66.00
58153;DHT22;43967;51.634;5.566;2023-11-21T12:23:25;17.60;66.10
58153;DHT22;43967;51.634;5.566;2023-11-21T12:28:56;17.60;66.10
58153;DHT22;43967;51.634;5.566;2023-11-21T12:34:17;17.60;66.20
58153;DHT22;43967;51.634;5.566;2023-11-21T12:39:39;17.50;66.20
58153;DHT22;43967;51.634;5.566;2023-11-21T12:45:18;17.50;66.20
58153;DHT22;43967;51.634;5.566;2023-11-21T12:50:39;17.60;66.30
58153;DHT22;43967;51.634;5.566;2023-11-21T12:56:01;17.60;66.30
58153;DHT22;43967;51.634;5.566;2023-11-21T13:01:25;17.60;66.30
58153;DHT22;43967;51.634;5.566;2023-11-21T13:06:46;17.50;66.30
58153;DHT22;43967;51.634;5.566;2023-11-21T13:12:08;17.50;66.30
58153;DHT22;43967;51.634;5.566;2023-11-21T13:17:29;17.60;66.30
58153;DHT22;43967;51.634;5.566;2023-11-21T13:22:57;17.50;66.30
58153;DHT22;43967;51.634;5.566;2023-11-21T13:28:20;17.60;66.40
58153;DHT22;43967;51.634;5.566;2023-11-21T13:33:41;17.60;66.40
58153;DHT22;43967;51.634;5.566;2023-11-21T13:39:03;17.60;66.40
58153;DHT22;43967;51.634;5.566;2023-11-21T13:44:27;17.60;66.40
58153;DHT22;43967;51.634;5.566;2023-11-21T13:49:48;17.60;66.40
58153;DHT22;43967;51.634;5.566;2023-11-21T13:55:10;17.60;66.50
58153;DHT22;43967;51.634;5.566;2023-11-21T14:00:32;17.60;66.50
58153;DHT22;43967;51.634;5.566;2023-11-21T14:05:53;17.60;66.50
58153;DHT22;43967;51.634;5.566;2023-11-21T14:11:14;17.60;66.50
58153;DHT22;43967;51.634;5.566;2023-11-21T14:16:35;17.60;66.50
58153;DHT22;43967;51.634;5.566;2023-11-21T14:21:57;17.60;66.50
58153;DHT22;43967;51.634;5.566;2023-11-21T14:27:18;17.60;66.50
58153;DHT22;43967;51.634;5.566;2023-11-21T14:32:39;17.60;66.50
58153;DHT22;43967;51.634;5.566;2023-11-21T14:38:01;17.60;66.40
58153;DHT22;43967;51.634;5.566;2023-11-21T14:43:22;17.60;66.40
58153;DHT22;43967;51.634;5.566;2023-11-21T14:48:43;17.60;66.40
58153;DHT22;43967;51.634;5.566;2023-11-21T14:54:05;17.60;66.30
58153;DHT22;43967;51.634;5.566;2023-11-21T14:59:26;17.60;66.40
58153;DHT22;43967;51.634;5.566;2023-11-21T15:04:48;17.60;66.40
58153;DHT22;43967;51.634;5.566;2023-11-21T15:10:09;17.60;66.40
58153;DHT22;43967;51.634;5.566;2023-11-21T15:15:30;17.60;66.40
58153;DHT22;43967;51.634;5.566;2023-11-21T15:20:52;17.60;66.40
58153;DHT22;43967;51.634;5.566;2023-11-21T15:26:13;17.60;66.40
58153;DHT22;43967;51.634;5.566;2023-11-21T15:31:34;17.60;66.40
58153;DHT22;43967;51.634;5.566;2023-11-21T15:36:55;17.60;66.40
58153;DHT22;43967;51.634;5.566;2023-11-21T15:42:20;17.60;66.40
58153;DHT22;43967;51.634;5.566;2023-11-21T15:47:41;17.60;66.30
58153;DHT22;43967;51.634;5.566;2023-11-21T15:53:02;17.60;66.30
58153;DHT22;43967;51.634;5.566;2023-11-21T15:58:24;17.60;66.30
58153;DHT22;43967;51.634;5.566;2023-11-21T16:03:45;17.60;66.30
58153;DHT22;43967;51.634;5.566;2023-11-21T16:09:06;17.60;66.30
58153;DHT22;43967;51.634;5.566;2023-11-21T16:14:28;17.60;66.30
58153;DHT22;43967;51.634;5.566;2023-11-21T16:19:50;17.60;66.20
58153;DHT22;43967;51.634;5.566;2023-11-21T16:25:12;17.60;66.10
58153;DHT22;43967;51.634;5.566;2023-11-21T16:30:33;17.60;66.10
58153;DHT22;43967;51.634;5.566;2023-11-21T16:35:54;17.60;66.00
58153;DHT22;43967;51.634;5.566;2023-11-21T16:41:16;17.70;65.90
58153;DHT22;43967;51.634;5.566;2023-11-21T16:46:37;17.60;65.60
58153;DHT22;43967;51.634;5.566;2023-11-21T16:51:58;17.70;65.50
58153;DHT22;43967;51.634;5.566;2023-11-21T16:57:20;17.60;66.10
58153;DHT22;43967;51.634;5.566;2023-11-21T17:02:41;17.60;65.50
58153;DHT22;43967;51.634;5.566;2023-11-21T17:08:02;17.60;65.50
58153;DHT22;43967;51.634;5.566;2023-11-21T17:13:24;17.60;65.60
58153;DHT22;43967;51.634;5.566;2023-11-21T17:18:45;17.70;65.60
58153;DHT22;43967;51.634;5.566;2023-11-21T17:24:07;17.60;65.50
58153;DHT22;43967;51.634;5.566;2023-11-21T17:29:28;17.60;65.50
58153;DHT22;43967;51.634;5.566;2023-11-21T17:34:49;17.60;65.50
58153;DHT22;43967;51.634;5.566;2023-11-21T17:40:10;17.60;65.40
58153;DHT22;43967;51.634;5.566;2023-11-21T17:45:32;17.60;65.40
58153;DHT22;43967;51.634;5.566;2023-11-21T17:50:53;17.60;65.40
58153;DHT22;43967;51.634;5.566;2023-11-21T17:56:18;17.60;65.30
58153;DHT22;43967;51.634;5.566;2023-11-21T18:01:39;17.60;65.20
58153;DHT22;43967;51.634;5.566;2023-11-21T18:07:01;17.60;65.80
58153;DHT22;43967;51.634;5.566;2023-11-21T18:12:23;17.70;65.00
58153;DHT22;43967;51.634;5.566;2023-11-21T18:17:45;17.60;64.90
58153;DHT22;43967;51.634;5.566;2023-11-21T18:23:06;17.60;64.80
58153;DHT22;43967;51.634;5.566;2023-11-21T18:28:28;17.60;64.60
58153;DHT22;43967;51.634;5.566;2023-11-21T18:33:51;17.60;64.60
58153;DHT22;43967;51.634;5.566;2023-11-21T18:39:12;17.60;64.50
58153;DHT22;43967;51.634;5.566;2023-11-21T18:44:34;17.60;64.50
58153;DHT22;43967;51.634;5.566;2023-11-21T18:49:55;17.60;64.50
58153;DHT22;43967;51.634;5.566;2023-11-21T18:55:18;17.60;64.50
58153;DHT22;43967;51.634;5.566;2023-11-21T19:00:40;17.60;64.40
58153;DHT22;43967;51.634;5.566;2023-11-21T19:06:01;17.60;64.30
58153;DHT22;43967;51.634;5.566;2023-11-21T19:11:22;17.60;64.30
58153;DHT22;43967;51.634;5.566;2023-11-21T19:16:44;17.60;64.10
58153;DHT22;43967;51.634;5.566;2023-11-21T19:22:05;17.60;64.10
58153;DHT22;43967;51.634;5.566;2023-11-21T19:27:26;17.60;64.00
58153;DHT22;43967;51.634;5.566;2023-11-21T19:32:48;17.60;63.90
58153;DHT22;43967;51.634;5.566;2023-11-21T19:38:09;17.60;63.90
58153;DHT22;43967;51.634;5.566;2023-11-21T19:43:30;17.60;63.80
58153;DHT22;43967;51.634;5.566;2023-11-21T19:48:51;17.60;63.80
58153;DHT22;43967;51.634;5.566;2023-11-21T19:54:13;17.60;63.80
58153;DHT22;43967;51.634;5.566;2023-11-21T19:59:34;17.60;63.70
58153;DHT22;43967;51.634;5.566;2023-11-21T20:04:55;17.60;63.60
58153;DHT22;43967;51.634;5.566;2023-11-21T20:10:16;17.60;63.60
58153;DHT22;43967;51.634;5.566;2023-11-21T20:15:38;17.60;63.60
58153;DHT22;43967;51.634;5.566;2023-11-21T20:20:59;17.60;63.60
58153;DHT22;43967;51.634;5.566;2023-11-21T20:26:25;17.60;63.60
58153;DHT22;43967;51.634;5.566;2023-11-21T20:31:46;17.60;63.50
58153;DHT22;43967;51.634;5.566;2023-11-21T20:37:07;17.60;63.50
58153;DHT22;43967;51.634;5.566;2023-11-21T20:42:29;17.60;63.50
58153;DHT22;43967;51.634;5.566;2023-11-21T20:47:50;17.60;63.40
58153;DHT22;43967;51.634;5.566;2023-11-21T20:53:11;17.60;63.40
58153;DHT22;43967;51.634;5.566;2023-11-21T20:58:33;17.60;63.40
58153;DHT22;43967;51.634;5.566;2023-11-21T21:03:56;17.60;63.40
58153;DHT22;43967;51.634;5.566;2023-11-21T21:09:17;17.60;63.30
58153;DHT22;43967;51.634;5.566;2023-11-21T21:14:38;17.60;63.30
58153;DHT22;43967;51.634;5.566;2023-11-21T21:19:59;17.60;63.30
58153;DHT22;43967;51.634;5.566;2023-11-21T21:25:23;17.50;63.20
58153;DHT22;43967;51.634;5.566;2023-11-21T21:30:44;17.60;63.60
58153;DHT22;43967;51.634;5.566;2023-11-21T21:36:08;17.60;63.60
58153;DHT22;43967;51.634;5.566;2023-11-21T21:41:30;17.60;63.50
58153;DHT22;43967;51.634;5.566;2023-11-21T21:46:51;17.60;63.40
58153;DHT22;43967;51.634;5.566;2023-11-21T21:52:12;17.60;63.50
58153;DHT22;43967;51.634;5.566;2023-11-21T21:57:34;17.60;63.40
58153;DHT22;43967;51.634;5.566;2023-11-21T22:02:55;17.60;63.40
58153;DHT22;43967;51.634;5.566;2023-11-21T22:08:16;17.60;63.40
58153;DHT22;43967;51.634;5.566;2023-11-21T22:13:38;17.60;63.30
58153;DHT22;43967;51.634;5.566;2023-11-21T22:18:59;17.60;63.30
58153;DHT22;43967;51.634;5.566;2023-11-21T22:24:20;17.60;63.20
58153;DHT22;43967;51.634;5.566;2023-11-21T22:29:42;17.60;63.20
58153;DHT22;43967;51.634;5.566;2023-11-21T22:35:03;17.60;63.20
58153;DHT22;43967;51.634;5.566;2023-11-21T22:40:25;17.60;63.10
58153;DHT22;43967;51.634;5.566;2023-11-21T22:45:46;17.60;63.10
58153;DHT22;43967;51.634;5.566;2023-11-21T22:51:07;17.60;63.10
58153;DHT22;43967;51.634;5.566;2023-11-21T22:56:28;17.60;63.10
58153;DHT22;43967;51.634;5.566;2023-11-21T23:01:50;17.60;63.10
58153;DHT22;43967;51.634;5.566;2023-11-21T23:07:11;17.60;63.10
58153;DHT22;43967;51.634;5.566;2023-11-21T23:12:33;17.60;63.00
58153;DHT22;43967;51.634;5.566;2023-11-21T23:17:54;17.60;63.10
58153;DHT22;43967;51.634;5.566;2023-11-21T23:23:16;17.60;63.00
58153;DHT22;43967;51.634;5.566;2023-11-21T23:28:37;17.60;62.90
58153;DHT22;43967;51.634;5.566;2023-11-21T23:33:58;17.60;62.90
58153;DHT22;43967;51.634;5.566;2023-11-21T23:39:19;17.60;63.00
58153;DHT22;43967;51.634;5.566;2023-11-21T23:44:41;17.60;62.70
58153;DHT22;43967;51.634;5.566;2023-11-21T23:50:02;17.60;62.80
58153;DHT22;43967;51.634;5.566;2023-11-21T23:55:23;17.60;62.70
